Terminal Aerodrome Forecast
Issued by NWS

Home | Current Version | Previous Version | Text Only | Print | Product List | Glossary On
Versions: 1 2 3 4 5 6 7 8 9 10 11 12 13 14 15 16 17 18 19 20 21 22 23
000
FTUS42 KFFC 200334 AAB
TAFRYY
TAF AMD
KRYY 200334Z 2004/2024 31004KT P6SM -RA SCT050 BKN080 OVC120
     FM200600 36003KT 6SM -RA BR OVC040
     FM201000 03004KT 6SM -RA BR OVC025
     FM201400 06005KT P6SM VCSH OVC028
     FM202000 07005KT P6SM BKN035
      AMD NOT SKED 2004/2012=

USA.gov is the U.S. government's official web portal to all federal, state and local government web resources and services.